Ofeherto, Hungary
Current Conditions -  °F | °C
As of 4:00 AM on Sunday 23 Nov 2014 (Local Time) from LRSM Reporting Station
Broken Clouds Broken Clouds  
Wind Chill: 37°   Ceiling: 4300
Heat Index: 37°   Visibility: 4mi
Dew Point: 37°   Wind: 0mph
Humidity: 100%   Direction: NA
Pressure: 30.39"   Gusts: NA
Location:  47.93°N, 22.05°E
Report Text: LRSM 230200Z AUTO 00000KT 6000 BKN043 03/03 Q1029
Loading
Personal Weather Stations






























Interactive Weather Map New forecast layout! Learn more

10-Day Weather Forecast

Advertisements
Track Severe Weather on mobile